createdAt,value
2022-10-21T06:28:07.020Z,14.20
2022-10-21T06:30:34.299Z,14.70
2022-10-21T06:33:00.971Z,14.50
2022-10-21T06:35:27.630Z,14.50
2022-10-21T06:37:54.314Z,14.40
2022-10-21T06:40:20.975Z,14.40
2022-10-21T06:42:49.711Z,14.30
2022-10-21T06:45:16.414Z,14.30
2022-10-21T06:47:43.049Z,14.30
2022-10-21T06:50:10.066Z,14.40
2022-10-21T06:52:36.811Z,14.40
2022-10-21T06:55:03.683Z,14.40
2022-10-21T06:57:30.372Z,14.50
2022-10-21T06:59:57.034Z,14.50
2022-10-21T07:02:26.454Z,14.50
2022-10-21T07:04:53.415Z,14.40
2022-10-21T07:07:20.423Z,14.50
2022-10-21T07:09:47.162Z,14.50
2022-10-21T07:12:14.065Z,14.50
2022-10-21T07:14:40.800Z,14.40
2022-10-21T07:17:07.469Z,14.40
2022-10-21T07:19:34.234Z,14.30
2022-10-21T07:22:01.278Z,14.20
2022-10-21T07:24:28.044Z,14.10
2022-10-21T07:26:54.910Z,14.10
2022-10-21T07:29:21.634Z,14.20
2022-10-21T07:31:48.899Z,14.20
2022-10-21T07:34:15.986Z,14.20
2022-10-21T07:36:47.924Z,14.20
2022-10-21T07:39:17.619Z,14.10
2022-10-21T07:41:47.490Z,14.10
2022-10-21T07:44:15.017Z,14.10
2022-10-21T07:46:43.048Z,14.10
2022-10-21T07:49:11.604Z,14.20
2022-10-21T07:51:39.320Z,14.20
2022-10-21T07:54:06.795Z,14.20
2022-10-21T07:56:40.513Z,14.40
2022-10-21T07:59:12.587Z,14.40
2022-10-21T08:01:44.060Z,14.50
2022-10-21T08:04:13.090Z,14.50
2022-10-21T08:06:39.838Z,14.40
2022-10-21T08:09:06.609Z,14.30
2022-10-21T08:11:34.082Z,14.30
2022-10-21T08:14:01.264Z,14.20
2022-10-21T08:16:28.110Z,14.30
2022-10-21T08:18:55.491Z,14.20
2022-10-21T08:21:22.198Z,14.10
2022-10-21T08:23:48.922Z,14.10
2022-10-21T08:26:16.617Z,14.10
2022-10-21T08:28:44.300Z,14.10
2022-10-21T08:31:14.309Z,14.10
2022-10-21T08:33:41.327Z,14.10
2022-10-21T08:36:12.687Z,14.10
2022-10-21T08:38:39.866Z,14.10
2022-10-21T08:41:32.498Z,14.10
2022-10-21T08:44:14.336Z,14.10
2022-10-21T08:46:49.779Z,14.00
2022-10-21T08:49:30.765Z,14.10
2022-10-21T08:52:04.582Z,14.10
2022-10-21T08:55:02.913Z,14.10
2022-10-21T08:57:34.311Z,14.10
2022-10-21T09:00:02.668Z,14.10
2022-10-21T09:02:37.495Z,14.10
2022-10-21T09:05:46.106Z,14.10
2022-10-21T09:08:33.209Z,14.20
2022-10-21T09:11:00.355Z,14.20
2022-10-21T09:13:35.065Z,14.20
2022-10-21T09:16:01.762Z,14.10
2022-10-21T09:18:58.041Z,14.20
2022-10-21T09:21:45.918Z,14.30
2022-10-21T09:24:26.273Z,14.40
2022-10-21T09:26:53.913Z,14.40
2022-10-21T09:29:30.752Z,14.40
2022-10-21T09:32:12.364Z,14.40
2022-10-21T09:35:00.178Z,14.50
2022-10-21T09:37:35.365Z,14.50
2022-10-21T09:40:16.491Z,14.50
2022-10-21T09:42:47.304Z,14.50
2022-10-21T09:45:23.370Z,14.40
2022-10-21T09:48:15.684Z,14.30
2022-10-21T09:50:42.903Z,14.30
2022-10-21T09:53:21.414Z,14.40
2022-10-21T09:55:56.272Z,14.30
2022-10-21T09:58:44.650Z,14.40
2022-10-21T10:01:25.637Z,14.20
2022-10-21T10:03:53.483Z,14.30
2022-10-21T10:06:36.236Z,14.40
2022-10-21T10:09:28.793Z,14.40
2022-10-21T10:12:15.159Z,14.60
2022-10-21T10:14:44.678Z,14.60
2022-10-21T10:17:31.577Z,14.50
2022-10-21T10:20:04.312Z,14.60
2022-10-21T10:22:41.761Z,14.70
2022-10-21T10:25:14.790Z,14.70
2022-10-21T10:27:48.339Z,14.70
2022-10-21T10:30:16.475Z,14.80
2022-10-21T10:32:44.818Z,14.90
2022-10-21T10:35:25.728Z,15.00
2022-10-21T10:37:52.961Z,15.10
2022-10-21T10:40:34.031Z,15.10
2022-10-21T10:43:22.111Z,15.10
2022-10-21T10:45:57.744Z,15.10
2022-10-21T10:48:34.873Z,15.10
2022-10-21T10:51:07.340Z,15.00
2022-10-21T10:53:38.473Z,15.00
2022-10-21T10:56:15.798Z,15.00
2022-10-21T10:58:51.240Z,14.90
2022-10-21T11:01:28.078Z,14.90
2022-10-21T11:04:08.856Z,15.00
2022-10-21T11:06:50.275Z,14.90
2022-10-21T11:09:21.679Z,14.80
2022-10-21T11:11:54.722Z,14.90
2022-10-21T11:14:22.843Z,14.90
2022-10-21T11:17:01.573Z,14.90
2022-10-21T11:20:02.209Z,14.90
2022-10-21T11:23:00.068Z,14.90
2022-10-21T11:25:43.355Z,14.90
2022-10-21T11:28:21.492Z,15.10
2022-10-21T11:31:06.703Z,15.20
2022-10-21T11:33:51.790Z,15.30
2022-10-21T11:36:40.154Z,15.30
2022-10-21T11:39:21.453Z,15.30
2022-10-21T11:41:56.472Z,15.30
2022-10-21T11:44:36.364Z,15.40
2022-10-21T11:47:18.313Z,15.40
2022-10-21T11:49:51.095Z,15.50
2022-10-21T11:52:17.705Z,15.60
2022-10-21T11:55:10.434Z,15.60
2022-10-21T11:57:46.207Z,15.70
2022-10-21T12:00:19.298Z,15.80
2022-10-21T12:02:54.354Z,15.90
2022-10-21T12:05:41.736Z,15.90
2022-10-21T12:08:41.346Z,16.30
2022-10-21T12:11:16.784Z,17.30
2022-10-21T12:13:51.301Z,17.20
2022-10-21T12:16:23.302Z,17.00
2022-10-21T12:19:10.970Z,16.90
2022-10-21T12:21:43.659Z,16.90
2022-10-21T12:24:48.338Z,16.80
2022-10-21T12:27:21.543Z,16.60
2022-10-21T12:30:10.577Z,16.40
